createdAt,value
2022-08-19T11:47:46.726Z,30.90
2022-08-19T11:50:18.924Z,30.90
2022-08-19T11:52:52.158Z,31.00
2022-08-19T11:55:22.425Z,31.20
2022-08-19T11:57:53.481Z,31.30
2022-08-19T12:00:24.526Z,31.50
2022-08-19T12:02:54.999Z,31.60
2022-08-19T12:05:25.337Z,31.60
2022-08-19T12:07:56.823Z,31.60
2022-08-19T12:10:28.153Z,31.70
2022-08-19T12:12:59.149Z,31.60
2022-08-19T12:15:37.097Z,31.30
2022-08-19T12:18:08.324Z,31.30
2022-08-19T12:20:42.070Z,31.00
2022-08-19T12:23:13.174Z,30.60
2022-08-19T12:25:55.224Z,30.50
2022-08-19T12:28:27.230Z,30.40
2022-08-19T12:30:59.086Z,30.40
2022-08-19T12:33:31.779Z,31.10
2022-08-19T12:36:08.473Z,31.50
2022-08-19T12:38:39.935Z,31.60
2022-08-19T12:41:14.664Z,31.50
2022-08-19T12:43:44.988Z,31.10
2022-08-19T12:46:16.942Z,31.10
2022-08-19T12:48:49.083Z,31.00
2022-08-19T12:51:29.471Z,31.20
2022-08-19T12:53:59.553Z,31.30
2022-08-19T12:56:29.885Z,31.00
2022-08-19T12:58:59.924Z,30.60
2022-08-19T13:01:32.754Z,30.50
2022-08-19T13:04:03.426Z,30.40
2022-08-19T13:06:35.346Z,30.30
2022-08-19T13:09:07.905Z,30.60
2022-08-19T13:11:38.325Z,30.80
2022-08-19T13:14:08.380Z,30.80
2022-08-19T13:16:40.352Z,30.80
2022-08-19T13:19:10.685Z,30.80
2022-08-19T13:21:41.766Z,30.40
2022-08-19T13:24:16.099Z,30.20
2022-08-19T13:26:46.560Z,30.10
2022-08-19T13:29:36.469Z,30.00
2022-08-19T13:32:27.098Z,30.50
2022-08-19T13:34:57.597Z,30.50
2022-08-19T13:37:48.500Z,30.60
2022-08-19T13:40:24.165Z,30.10
2022-08-19T13:42:56.486Z,29.70
2022-08-19T13:45:29.483Z,29.90
2022-08-19T13:48:00.740Z,30.30
2022-08-19T13:50:33.927Z,30.40
2022-08-19T13:53:05.083Z,29.90
2022-08-19T13:55:35.548Z,29.70
2022-08-19T13:58:06.270Z,29.70
2022-08-19T14:00:45.967Z,30.10
2022-08-19T14:03:16.450Z,30.40
2022-08-19T14:05:46.751Z,30.00
2022-08-19T14:08:17.226Z,29.50
2022-08-19T14:10:48.247Z,29.60
2022-08-19T14:13:22.102Z,30.20
2022-08-19T14:15:53.064Z,30.30
